sensor_id;sensor_type;location;lat;lon;timestamp;P1;durP1;ratioP1;P2;durP2;ratioP2
16430;SDS011;8325;49.284;7.238;2022-09-28T04:03:57;4.00;;;2.83;;
16430;SDS011;8325;49.284;7.238;2022-09-28T04:08:09;4.93;;;3.22;;
16430;SDS011;8325;49.284;7.238;2022-09-28T04:17:09;8.70;;;4.53;;
16430;SDS011;8325;49.284;7.238;2022-09-28T04:21:20;6.70;;;4.78;;
16430;SDS011;8325;49.284;7.238;2022-09-28T04:25:38;10.43;;;5.32;;
16430;SDS011;8325;49.284;7.238;2022-09-28T04:29:49;9.30;;;4.68;;
16430;SDS011;8325;49.284;7.238;2022-09-28T04:34:02;8.07;;;5.20;;
16430;SDS011;8325;49.284;7.238;2022-09-28T04:38:15;8.95;;;4.80;;
16430;SDS011;8325;49.284;7.238;2022-09-28T04:42:51;7.72;;;4.47;;
16430;SDS011;8325;49.284;7.238;2022-09-28T04:47:08;9.32;;;5.38;;
16430;SDS011;8325;49.284;7.238;2022-09-28T04:51:38;7.85;;;4.63;;
16430;SDS011;8325;49.284;7.238;2022-09-28T04:55:54;7.53;;;4.60;;
16430;SDS011;8325;49.284;7.238;2022-09-28T05:00:16;10.15;;;4.88;;
16430;SDS011;8325;49.284;7.238;2022-09-28T05:04:43;6.43;;;4.35;;
16430;SDS011;8325;49.284;7.238;2022-09-28T05:09:10;9.45;;;4.55;;
16430;SDS011;8325;49.284;7.238;2022-09-28T05:13:21;8.98;;;4.70;;
16430;SDS011;8325;49.284;7.238;2022-09-28T05:28:35;7.63;;;4.57;;
16430;SDS011;8325;49.284;7.238;2022-09-28T05:33:19;7.72;;;5.18;;
16430;SDS011;8325;49.284;7.238;2022-09-28T05:37:39;8.00;;;5.00;;
16430;SDS011;8325;49.284;7.238;2022-09-28T05:41:51;12.68;;;5.20;;
16430;SDS011;8325;49.284;7.238;2022-09-28T05:46:03;8.18;;;5.45;;
16430;SDS011;8325;49.284;7.238;2022-09-28T05:55:27;13.02;;;6.03;;
16430;SDS011;8325;49.284;7.238;2022-09-28T05:59:39;11.10;;;6.00;;
16430;SDS011;8325;49.284;7.238;2022-09-28T06:03:50;15.95;;;9.32;;
16430;SDS011;8325;49.284;7.238;2022-09-28T06:08:03;13.80;;;8.32;;
16430;SDS011;8325;49.284;7.238;2022-09-28T06:12:16;11.02;;;8.25;;
16430;SDS011;8325;49.284;7.238;2022-09-28T06:16:31;14.27;;;7.85;;
16430;SDS011;8325;49.284;7.238;2022-09-28T06:20:42;11.98;;;7.03;;
16430;SDS011;8325;49.284;7.238;2022-09-28T06:24:59;7.28;;;4.68;;
16430;SDS011;8325;49.284;7.238;2022-09-28T06:29:10;8.80;;;5.10;;
16430;SDS011;8325;49.284;7.238;2022-09-28T06:33:29;8.18;;;5.03;;
16430;SDS011;8325;49.284;7.238;2022-09-28T06:37:43;8.20;;;4.90;;
16430;SDS011;8325;49.284;7.238;2022-09-28T06:41:56;10.02;;;5.28;;
16430;SDS011;8325;49.284;7.238;2022-09-28T06:46:18;5.22;;;4.22;;
16430;SDS011;8325;49.284;7.238;2022-09-28T06:50:39;7.70;;;4.47;;
16430;SDS011;8325;49.284;7.238;2022-09-28T06:55:11;5.82;;;3.55;;
16430;SDS011;8325;49.284;7.238;2022-09-28T07:05:24;5.97;;;4.00;;
16430;SDS011;8325;49.284;7.238;2022-09-28T07:09:46;6.55;;;3.30;;
16430;SDS011;8325;49.284;7.238;2022-09-28T07:14:23;5.85;;;3.42;;
16430;SDS011;8325;49.284;7.238;2022-09-28T07:18:55;5.88;;;3.15;;
16430;SDS011;8325;49.284;7.238;2022-09-28T07:23:06;9.48;;;3.17;;
16430;SDS011;8325;49.284;7.238;2022-09-28T07:27:48;4.93;;;2.53;;
16430;SDS011;8325;49.284;7.238;2022-09-28T07:32:14;4.85;;;2.70;;
16430;SDS011;8325;49.284;7.238;2022-09-28T07:36:40;5.30;;;2.72;;
16430;SDS011;8325;49.284;7.238;2022-09-28T07:40:52;5.00;;;2.83;;
16430;SDS011;8325;49.284;7.238;2022-09-28T07:45:27;4.95;;;2.60;;
16430;SDS011;8325;49.284;7.238;2022-09-28T07:49:40;4.78;;;2.50;;
16430;SDS011;8325;49.284;7.238;2022-09-28T07:54:11;4.80;;;3.22;;
16430;SDS011;8325;49.284;7.238;2022-09-28T07:58:51;5.47;;;2.85;;
16430;SDS011;8325;49.284;7.238;2022-09-28T08:03:05;5.35;;;2.85;;
16430;SDS011;8325;49.284;7.238;2022-09-28T08:07:17;4.78;;;2.70;;
16430;SDS011;8325;49.284;7.238;2022-09-28T08:11:40;5.93;;;2.40;;
16430;SDS011;8325;49.284;7.238;2022-09-28T08:16:16;4.63;;;2.47;;
16430;SDS011;8325;49.284;7.238;2022-09-28T08:20:50;4.32;;;2.15;;
16430;SDS011;8325;49.284;7.238;2022-09-28T08:25:21;3.58;;;2.10;;
16430;SDS011;8325;49.284;7.238;2022-09-28T08:29:35;4.88;;;2.40;;
16430;SDS011;8325;49.284;7.238;2022-09-28T08:34:05;4.22;;;2.25;;
16430;SDS011;8325;49.284;7.238;2022-09-28T08:38:35;4.45;;;2.67;;
16430;SDS011;8325;49.284;7.238;2022-09-28T08:43:09;4.53;;;3.00;;
16430;SDS011;8325;49.284;7.238;2022-09-28T08:48:16;6.22;;;3.55;;
16430;SDS011;8325;49.284;7.238;2022-09-28T08:58:30;3.63;;;3.17;;
16430;SDS011;8325;49.284;7.238;2022-09-28T09:02:36;5.88;;;3.25;;
16430;SDS011;8325;49.284;7.238;2022-09-28T09:07:07;4.47;;;2.83;;
16430;SDS011;8325;49.284;7.238;2022-09-28T09:11:44;5.10;;;2.97;;
16430;SDS011;8325;49.284;7.238;2022-09-28T09:16:03;5.03;;;3.47;;
16430;SDS011;8325;49.284;7.238;2022-09-28T09:20:58;5.47;;;3.40;;
16430;SDS011;8325;49.284;7.238;2022-09-28T09:25:27;4.43;;;3.22;;
16430;SDS011;8325;49.284;7.238;2022-09-28T09:30:04;5.00;;;2.97;;
16430;SDS011;8325;49.284;7.238;2022-09-28T09:39:16;4.15;;;2.50;;
16430;SDS011;8325;49.284;7.238;2022-09-28T09:44:13;4.13;;;2.70;;
16430;SDS011;8325;49.284;7.238;2022-09-28T09:49:10;4.82;;;2.88;;
16430;SDS011;8325;49.284;7.238;2022-09-28T09:53:30;6.38;;;2.50;;
16430;SDS011;8325;49.284;7.238;2022-09-28T10:07:03;4.55;;;2.80;;
16430;SDS011;8325;49.284;7.238;2022-09-28T10:11:26;4.43;;;2.53;;
16430;SDS011;8325;49.284;7.238;2022-09-28T10:15:42;2.83;;;2.30;;
16430;SDS011;8325;49.284;7.238;2022-09-28T10:20:03;3.72;;;2.13;;
16430;SDS011;8325;49.284;7.238;2022-09-28T10:34:04;6.22;;;2.85;;
16430;SDS011;8325;49.284;7.238;2022-09-28T10:38:18;2.95;;;2.55;;
16430;SDS011;8325;49.284;7.238;2022-09-28T10:42:31;4.88;;;2.50;;
16430;SDS011;8325;49.284;7.238;2022-09-28T10:46:54;4.45;;;2.42;;
16430;SDS011;8325;49.284;7.238;2022-09-28T10:51:07;4.78;;;2.13;;
16430;SDS011;8325;49.284;7.238;2022-09-28T10:55:29;3.33;;;2.10;;
16430;SDS011;8325;49.284;7.238;2022-09-28T10:59:43;5.13;;;2.35;;
16430;SDS011;8325;49.284;7.238;2022-09-28T11:04:03;3.97;;;1.70;;
16430;SDS011;8325;49.284;7.238;2022-09-28T11:08:21;2.92;;;2.00;;
16430;SDS011;8325;49.284;7.238;2022-09-28T11:12:41;5.03;;;2.55;;
16430;SDS011;8325;49.284;7.238;2022-09-28T11:21:26;5.05;;;2.20;;
16430;SDS011;8325;49.284;7.238;2022-09-28T11:25:58;3.22;;;2.13;;
16430;SDS011;8325;49.284;7.238;2022-09-28T11:30:24;2.97;;;2.10;;
16430;SDS011;8325;49.284;7.238;2022-09-28T11:35:06;4.13;;;2.10;;
16430;SDS011;8325;49.284;7.238;2022-09-28T11:50:23;3.42;;;2.05;;
16430;SDS011;8325;49.284;7.238;2022-09-28T11:59:32;2.50;;;1.25;;
16430;SDS011;8325;49.284;7.238;2022-09-28T12:03:51;1.70;;;1.50;;
16430;SDS011;8325;49.284;7.238;2022-09-28T12:08:14;2.22;;;1.33;;
16430;SDS011;8325;49.284;7.238;2022-09-28T12:19:04;2.22;;;1.60;;
16430;SDS011;8325;49.284;7.238;2022-09-28T12:23:28;1.83;;;1.40;;
16430;SDS011;8325;49.284;7.238;2022-09-28T12:27:45;3.63;;;1.48;;
16430;SDS011;8325;49.284;7.238;2022-09-28T12:32:03;2.70;;;1.60;;
16430;SDS011;8325;49.284;7.238;2022-09-28T12:41:02;3.28;;;2.00;;
16430;SDS011;8325;49.284;7.238;2022-09-28T12:59:49;5.05;;;1.90;;
16430;SDS011;8325;49.284;7.238;2022-09-28T13:04:26;2.95;;;1.70;;
16430;SDS011;8325;49.284;7.238;2022-09-28T13:09:00;2.28;;;1.60;;
16430;SDS011;8325;49.284;7.238;2022-09-28T13:13:36;1.73;;;1.42;;
16430;SDS011;8325;49.284;7.238;2022-09-28T13:23:48;3.53;;;1.75;;
16430;SDS011;8325;49.284;7.238;2022-09-28T13:28:49;3.47;;;1.60;;
16430;SDS011;8325;49.284;7.238;2022-09-28T13:33:05;3.22;;;1.88;;
16430;SDS011;8325;49.284;7.238;2022-09-28T13:42:07;3.42;;;2.00;;
16430;SDS011;8325;49.284;7.238;2022-09-28T13:46:23;2.83;;;2.10;;
16430;SDS011;8325;49.284;7.238;2022-09-28T13:51:03;2.13;;;1.73;;
16430;SDS011;8325;49.284;7.238;2022-09-28T14:31:37;5.13;;;2.50;;
16430;SDS011;8325;49.284;7.238;2022-09-28T14:41:50;3.38;;;2.15;;
16430;SDS011;8325;49.284;7.238;2022-09-28T14:55:46;2.97;;;2.20;;
16430;SDS011;8325;49.284;7.238;2022-09-28T15:00:06;3.13;;;2.22;;
16430;SDS011;8325;49.284;7.238;2022-09-28T15:04:26;5.22;;;2.13;;
16430;SDS011;8325;49.284;7.238;2022-09-28T15:08:39;3.35;;;2.38;;
16430;SDS011;8325;49.284;7.238;2022-09-28T15:23:21;6.28;;;2.65;;
16430;SDS011;8325;49.284;7.238;2022-09-28T15:27:36;3.75;;;2.20;;
16430;SDS011;8325;49.284;7.238;2022-09-28T15:31:48;3.28;;;2.22;;
16430;SDS011;8325;49.284;7.238;2022-09-28T15:36:04;5.70;;;2.38;;
16430;SDS011;8325;49.284;7.238;2022-09-28T15:40:26;6.05;;;2.33;;
16430;SDS011;8325;49.284;7.238;2022-09-28T15:44:42;4.18;;;1.95;;
16430;SDS011;8325;49.284;7.238;2022-09-28T15:49:23;2.97;;;2.20;;
16430;SDS011;8325;49.284;7.238;2022-09-28T15:53:41;4.43;;;2.33;;
16430;SDS011;8325;49.284;7.238;2022-09-28T16:11:24;3.45;;;2.35;;
16430;SDS011;8325;49.284;7.238;2022-09-28T16:15:39;3.65;;;2.28;;
16430;SDS011;8325;49.284;7.238;2022-09-28T16:19:50;5.40;;;3.38;;
16430;SDS011;8325;49.284;7.238;2022-09-28T16:24:02;6.03;;;3.30;;
16430;SDS011;8325;49.284;7.238;2022-09-28T16:34:23;5.30;;;2.85;;
16430;SDS011;8325;49.284;7.238;2022-09-28T16:43:09;29.10;;;11.73;;
16430;SDS011;8325;49.284;7.238;2022-09-28T16:47:30;18.17;;;8.63;;
16430;SDS011;8325;49.284;7.238;2022-09-28T16:51:45;9.98;;;5.20;;
16430;SDS011;8325;49.284;7.238;2022-09-28T16:55:57;9.88;;;5.90;;
16430;SDS011;8325;49.284;7.238;2022-09-28T17:00:19;11.05;;;6.75;;
16430;SDS011;8325;49.284;7.238;2022-09-28T17:04:33;8.10;;;5.70;;
16430;SDS011;8325;49.284;7.238;2022-09-28T17:08:44;8.00;;;6.07;;
16430;SDS011;8325;49.284;7.238;2022-09-28T17:12:56;10.25;;;6.93;;
16430;SDS011;8325;49.284;7.238;2022-09-28T17:17:07;8.43;;;5.80;;
16430;SDS011;8325;49.284;7.238;2022-09-28T17:21:39;12.10;;;7.82;;
16430;SDS011;8325;49.284;7.238;2022-09-28T17:25:50;12.05;;;6.80;;
16430;SDS011;8325;49.284;7.238;2022-09-28T17:35:08;29.60;;;21.45;;
16430;SDS011;8325;49.284;7.238;2022-09-28T17:39:35;22.17;;;16.58;;
16430;SDS011;8325;49.284;7.238;2022-09-28T17:43:47;20.48;;;15.18;;
16430;SDS011;8325;49.284;7.238;2022-09-28T17:47:58;24.15;;;16.67;;
16430;SDS011;8325;49.284;7.238;2022-09-28T17:52:10;26.55;;;18.63;;
16430;SDS011;8325;49.284;7.238;2022-09-28T17:56:23;25.30;;;16.25;;
16430;SDS011;8325;49.284;7.238;2022-09-28T18:00:42;16.48;;;11.02;;
16430;SDS011;8325;49.284;7.238;2022-09-28T18:04:57;10.07;;;8.18;;
16430;SDS011;8325;49.284;7.238;2022-09-28T18:09:13;6.95;;;5.20;;
16430;SDS011;8325;49.284;7.238;2022-09-28T18:13:25;5.50;;;4.60;;
16430;SDS011;8325;49.284;7.238;2022-09-28T18:17:37;12.57;;;10.68;;
16430;SDS011;8325;49.284;7.238;2022-09-28T18:21:48;8.90;;;6.97;;
16430;SDS011;8325;49.284;7.238;2022-09-28T18:26:00;9.45;;;6.25;;
16430;SDS011;8325;49.284;7.238;2022-09-28T18:30:11;8.43;;;6.75;;
16430;SDS011;8325;49.284;7.238;2022-09-28T18:34:23;11.15;;;9.65;;
16430;SDS011;8325;49.284;7.238;2022-09-28T18:38:35;12.05;;;10.70;;
16430;SDS011;8325;49.284;7.238;2022-09-28T18:42:48;10.40;;;8.38;;
16430;SDS011;8325;49.284;7.238;2022-09-28T18:47:00;13.15;;;9.00;;
16430;SDS011;8325;49.284;7.238;2022-09-28T18:51:12;7.68;;;5.07;;
16430;SDS011;8325;49.284;7.238;2022-09-28T18:55:24;6.72;;;4.25;;
16430;SDS011;8325;49.284;7.238;2022-09-28T18:59:35;7.15;;;4.45;;
16430;SDS011;8325;49.284;7.238;2022-09-28T19:03:47;4.43;;;4.00;;
16430;SDS011;8325;49.284;7.238;2022-09-28T19:07:58;8.82;;;4.40;;
16430;SDS011;8325;49.284;7.238;2022-09-28T19:12:10;11.23;;;7.38;;
16430;SDS011;8325;49.284;7.238;2022-09-28T19:16:23;14.68;;;10.52;;
16430;SDS011;8325;49.284;7.238;2022-09-28T19:20:38;13.23;;;11.27;;
16430;SDS011;8325;49.284;7.238;2022-09-28T19:24:49;18.33;;;14.50;;
16430;SDS011;8325;49.284;7.238;2022-09-28T19:29:01;13.02;;;9.35;;
16430;SDS011;8325;49.284;7.238;2022-09-28T19:33:13;7.72;;;6.05;;
16430;SDS011;8325;49.284;7.238;2022-09-28T19:37:24;5.60;;;4.72;;
16430;SDS011;8325;49.284;7.238;2022-09-28T19:41:36;4.78;;;4.32;;
16430;SDS011;8325;49.284;7.238;2022-09-28T19:45:55;6.57;;;4.55;;
16430;SDS011;8325;49.284;7.238;2022-09-28T19:50:06;6.25;;;4.35;;
16430;SDS011;8325;49.284;7.238;2022-09-28T19:54:18;4.82;;;3.75;;
16430;SDS011;8325;49.284;7.238;2022-09-28T19:58:33;6.47;;;5.07;;
16430;SDS011;8325;49.284;7.238;2022-09-28T20:02:46;6.63;;;4.60;;
16430;SDS011;8325;49.284;7.238;2022-09-28T20:06:58;6.05;;;4.18;;
16430;SDS011;8325;49.284;7.238;2022-09-28T20:11:09;5.75;;;4.35;;
16430;SDS011;8325;49.284;7.238;2022-09-28T20:15:21;6.70;;;3.67;;
16430;SDS011;8325;49.284;7.238;2022-09-28T20:19:33;4.82;;;3.35;;
16430;SDS011;8325;49.284;7.238;2022-09-28T20:23:46;3.83;;;3.20;;
16430;SDS011;8325;49.284;7.238;2022-09-28T20:27:58;4.32;;;3.17;;
16430;SDS011;8325;49.284;7.238;2022-09-28T20:32:09;3.67;;;3.22;;
16430;SDS011;8325;49.284;7.238;2022-09-28T20:36:22;6.15;;;3.17;;
16430;SDS011;8325;49.284;7.238;2022-09-28T20:40:35;6.45;;;3.80;;
16430;SDS011;8325;49.284;7.238;2022-09-28T20:44:47;8.48;;;3.95;;
16430;SDS011;8325;49.284;7.238;2022-09-28T20:48:59;5.63;;;4.28;;
16430;SDS011;8325;49.284;7.238;2022-09-28T20:53:10;5.47;;;3.92;;
16430;SDS011;8325;49.284;7.238;2022-09-28T20:57:22;5.40;;;3.92;;
16430;SDS011;8325;49.284;7.238;2022-09-28T21:01:33;7.82;;;4.60;;
16430;SDS011;8325;49.284;7.238;2022-09-28T21:05:45;7.30;;;5.95;;
16430;SDS011;8325;49.284;7.238;2022-09-28T21:10:00;8.10;;;4.68;;
16430;SDS011;8325;49.284;7.238;2022-09-28T21:14:12;6.15;;;3.88;;
16430;SDS011;8325;49.284;7.238;2022-09-28T21:18:23;4.32;;;3.35;;
16430;SDS011;8325;49.284;7.238;2022-09-28T21:22:37;5.57;;;2.97;;
16430;SDS011;8325;49.284;7.238;2022-09-28T21:26:49;5.45;;;3.10;;
